Terminal Aerodrome Forecast
Issued by NWS

Home | Current Version | Previous Version | Text Only | Print | Product List | Glossary On
Versions: 1 2 3 4 5 6 7 8 9 10 11 12
000
FTUS42 KMLB 221729
TAFTIX
TAF
KTIX 221729Z 2218/2318 06010KT P6SM SCT035
     FM230200 07007KT P6SM SCT030
     FM230600 VRB03KT P6SM FEW020 SCT250=

USA.gov is the U.S. government's official web portal to all federal, state and local government web resources and services.